GSPO2: Great Salt Plains Lake

Data processed at Sat Dec 09 2017 23:31


All information presented herein is the property of the government of the United States of America and may be revised or deleted at any time without prior notice.
Dissemination of this information without the expressed written consent of the Public Affairs Office, Tulsa District U.S. Army Corps of Engineers is strictly prohibited.
These data are gathered electronically and, as presented, have not undergone any form of quality control. These data are not guaranteed to be valid or correct.
Go to home page.
Go to station list.

Upstream stations:

Downstream station:
Previous Day
Next Day
Current Day
    
SHEF ID:       GSPO2     Great Salt Plains Lake
STATION TYPE:  RESERVOIR
Normal Pool:  Bottom =  1118.00, Top =  1125.00

               PRECIP  RIV-FLOW ELEVATION   STORAGE    INFLOW   RELEASE  AIR-TEMP  WIND-DIRWIND-SPEED REL-HUMID SOLAR-RAD   VOLTAGE  BAT-LOAD
                   in       cfs        ft     ac-ft       cfs       cfs         F       deg       mph         %      W/m2      volt      volt
              Ccp-Rev  Regi-Rev   Ccp-Rev   Ccp-Rev  Regi-Rev  Regi-Rev   Ccp-Rev   Ccp-Rev   Ccp-Rev   Ccp-Rev   Ccp-Rev   Ccp-Rev   Ccp-Rev
(US/Central)
12/07 00:00      0.00      ----   1125.12     27658         3        34     34.88      3.40     13.20     60.24      0.00     13.58      ----
12/07 01:00      0.00      ----   1125.12     27658         3        46     33.13    357.20     10.10     59.50      0.00     13.58      ----
12/07 02:00      0.00      ----   1125.12     27658         3        46     31.44    359.70     10.90     59.34      0.00     13.58      ----
12/07 03:00      0.00      ----   1125.06     27033        11        34     28.53    355.10     11.90     53.35      0.00     13.58      ----
12/07 04:00      0.00      ----   1125.02     26617        10        14     25.83    355.20     10.70     56.70      0.00     13.58      ----
12/07 05:00      0.00      ----   1125.12     27658         8        27     23.70    348.60      8.70     61.49      0.00     13.57      ----
12/07 06:00      0.00      ----   1125.14     27866         8        52     21.67    332.70      6.40     66.58      0.00     13.57      ----
12/07 07:00      0.00      ----   1125.11     27554       177        49     19.36    323.00      8.20     72.04      0.00     13.57      ----
12/07 08:00      0.00      ----   1125.19     28386       367        63     17.56    323.60      6.90     77.01      0.00     13.57      ----
12/07 09:00      0.00      ----   1125.15     27970       518        74     18.63    325.00      6.50     75.02    109.60     13.57      ----
12/07 10:00      0.00      ----   1125.10     27449       518        49     22.51    344.80      9.50     61.90    345.00     13.57      ----
12/07 11:00      0.00      ----   1125.14     27866       518        46     26.91    335.80      8.90     48.98    497.40     13.57      ----
12/07 12:00      0.00      ----   1125.18     28282       348        68     29.64    346.50     11.20     40.00    589.90     13.57      ----
12/07 13:00      0.00      ----   1125.18     28282       151        79     31.24    348.50     10.80     34.43    615.90     13.57      ----
12/07 14:00      0.00      ----   1125.16     28074         1        74     32.59    333.80      8.70     32.12    571.40     13.57      ----
12/07 15:00      0.00      ----   1125.13     27762         2        60     33.66    311.50      7.80     30.81    457.90     13.57      ----
12/07 16:00      0.00      ----   1125.23     28802        12        80     34.03    324.40      6.80     30.34    294.80     13.57      ----
12/07 17:00      0.00      ----   1125.13     27762       148        80     33.67    328.60      6.20     30.01     99.60     13.57      ----
12/07 18:00      0.00      ----   1125.12     27658       157        49     31.37    330.80      3.20     32.69      0.10     13.57      ----
12/07 19:00      0.00      ----   1125.11     27554       165        54     28.36     35.80      1.00     35.52      0.00     13.57      ----
12/07 20:00      0.00      ----   1125.08     27241       509        45     24.84     99.00      0.60     39.41      0.00     13.57      ----
12/07 21:00      0.00      ----   1125.14     27866       845        43     21.65    109.00      0.50     48.61      0.00     13.57      ----
12/07 22:00      0.00      ----   1125.10     27449       764        46     17.87     46.70      0.90     63.65      0.00     13.57      ----
12/07 23:00      0.00      ----   1125.11     27554       809        38     17.24     73.30      1.10     66.71      0.00     13.57      ----